Weather observations for the past three days for
Ephraim-Gibraltar Airport
Metric (Imperial)
Date Time (cdt) Wind (kph) Vis. (km) Weather Sky Cond. Temperature (ºC) Relative Humidity Wind Chill (°C) Heat Index (°C) Pressure Precipitation (cm)
Air Dwpt 6 hour altimeter (cm) sea level (mb) 1 hr 3 hr 6 hr
Max. Min.
06 09:15 N 7 16.09 Overcast OVC060 3.8 -4.1 57% 2 75.97 0.0
06 08:55 NW 11 16.09 Overcast OVC060 3.5 -4 58% 1 75.97 0.0
06 08:35 N 11 16.09 Overcast SCT022 SCT038 OVC060 3.7 -2.2 66% 1 75.97 0.0
06 08:15 W 7 16.09 Overcast SCT022 BKN038 OVC060 3.6 -1.2 71% 2 75.95 0.0
06 07:55 Calm 16.09 Overcast BKN060 OVC070 3.2 -1.4 72% 75.95 0.0
06 07:35 Calm 16.09 Overcast OVC060 2.5 -2 73% 75.95 0.0
06 07:15 Calm 16.09 Overcast OVC070 2.2 -2 74% 75.95 0.0
06 06:55 Calm 16.09 Overcast SCT060 OVC070 2 -1.6 2 1.1 77% 75.92 0.0
06 06:35 Calm 16.09 Overcast SCT060 OVC070 1.6 -1.6 80% 75.9 0.0
06 06:15 Calm 16.09 Overcast OVC070 1.2 -1.6 82% 75.87 0.0
06 05:35 Calm 16.09 Overcast OVC070 1.2 -1.9 80% 75.84 0.0
06 05:15 S 6 16.09 Overcast OVC070 1.2 -2 79% 75.84 0.0
06 04:55 S 6 16.09 Overcast OVC070 1.3 -1.9 80% 75.84 0.0
06 04:35 Calm 16.09 Overcast OVC070 1.2 -2 79% 75.87 0.0
06 04:15 S 6 16.09 Overcast OVC070 1.2 -2.1 79% 75.87 0.0
06 03:55 S 6 16.09 Overcast OVC070 1.2 -2.3 78% 75.87 0.0
06 03:35 S 6 16.09 Overcast OVC070 1.1 -2.2 79% 75.84 0.0
06 03:15 Calm 16.09 Overcast OVC070 1.2 -2.3 78% 75.84 0.0
06 02:55 Calm 16.09 Overcast SCT060 OVC070 1.1 -2.2 79% 75.84 0.0
06 02:35 SE 6 16.09 Overcast SCT060 OVC070 1.2 -2.3 78% 75.84 0.0
06 02:15 Calm 16.09 Overcast SCT070 OVC075 1.2 -2.2 78% 75.84 0.0
06 01:55 SE 6 16.09 Overcast OVC070 1.5 -2 78% 75.84 0.0
06 01:35 Calm 16.09 Overcast OVC070 1.6 -2 77% 75.84 0.0
06 01:15 Calm 16.09 Overcast OVC070 1.7 -2 77% 75.84 0.0
06 00:55 Calm 16.09 Overcast OVC070 1.8 -2.3 8.2 1.3 75% 75.84 0.0
06 00:35 Calm 16.09 Overcast OVC070 2 -2.4 73% 75.87 0.0
06 00:15 Calm 16.09 Overcast OVC070 2.1 -2.5 72% 75.84 0.0
05 23:55 E 6 16.09 Overcast OVC070 2 -2.5 72% 75.82 0.0
05 23:35 SE 7 16.09 Mostly Cloudy BKN070 1.3 -2.6 76% -1 75.79 0.0
05 23:15 SE 7 16.09 Mostly Cloudy BKN070 2.1 -2.5 72% 0 75.79 0.0
05 22:55 E 9 16.09 Overcast OVC070 2.5 -2.5 70% 0 75.79 0.0
05 22:35 E 7 16.09 Overcast OVC070 2.6 -2.3 70% 1 75.79 0.0
05 22:15 E 6 16.09 Overcast OVC070 3.2 -2 69% 75.79 0.0
05 21:55 E 9 16.09 Overcast OVC070 3.5 -1.5 70% 1 75.77 0.0
05 21:35 E 7 16.09 Overcast OVC070 3.5 -1.5 70% 2 75.77 0.0
05 21:15 E 11 16.09 Overcast OVC070 3.7 -1.3 70% 1 75.74 0.0
05 20:55 E 9 16.09 Overcast OVC070 4 -1 70% 2 75.72 0.0
05 20:35 E 13 16.09 Overcast OVC070 4.3 -1.2 68% 2 75.69 0.0
05 19:55 N 13 G 26 16.09 Overcast OVC070 7 -5.3 42% 5 75.64 0.0
05 19:35 N 13 16.09 Overcast OVC080 7.4 -5.9 39% 5 75.64 0.0
05 19:15 NW 15 16.09 Overcast OVC080 8 -6.9 34% 6 75.64 0.0
05 18:55 NW 17 G 28 16.09 Overcast OVC080 8.2 -6.8 11.6 8.2 34% 6 75.62 0.0
05 18:35 NW 15 16.09 Mostly Cloudy BKN080 8.6 -6.9 33% 6 75.59 0.0
05 18:15 NW 15 16.09 Mostly Cloudy BKN080 9.9 -7.4 29% 8 75.57 0.0
05 17:55 NW 15 G 30 16.09 Overcast OVC080 9.5 -8.1 28% 8 75.57 0.0
05 17:35 NW 20 G 30 16.09 Overcast OVC080 11 -7.1 28% 75.54 0.0
05 17:15 NW 17 G 30 16.09 Mostly Cloudy BKN080 10.4 -7.5 28% 75.51 0.0
05 16:55 W 17 G 28 16.09 Mostly Cloudy BKN080 11.2 -5.9 30% 75.51 0.0
05 16:35 W 13 G 28 16.09 Overcast OVC080 10.2 -6.4 31% 75.51 0.0
05 16:15 W 15 G 26 16.09 Mostly Cloudy BKN080 10.5 -6.2 31% 75.49 0.0
05 15:55 W 19 G 30 16.09 Mostly Cloudy BKN080 10.9 -6.7 29% 75.49 0.0
05 15:35 W 13 16.09 Overcast OVC080 10.9 -6.4 29% 75.49 0.0
05 15:15 W 15 16.09 Overcast OVC080 10.7 -6.4 30% 75.49 0.0
05 14:55 W 9 16.09 Mostly Cloudy BKN080 10.9 -5.7 31% 75.46 0.0
05 14:35 SW 13 16.09 Mostly Cloudy BKN080 11.4 -6.5 28% 75.46 0.0
05 14:15 SW 19 G 26 16.09 Mostly Cloudy BKN080 11.4 -5.4 31% 75.46 0.0
05 13:55 SW 15 G 28 16.09 Mostly Cloudy BKN070 10.8 -6.3 30% 75.46 0.0
05 13:35 SW 20 G 28 16.09 Mostly Cloudy BKN070 11.3 -5.4 31% 75.44 0.0
05 13:15 SW 17 16.09 Mostly Cloudy BKN070 11.1 -5.7 31% 75.44 0.0
05 12:55 SW 15 G 26 16.09 Mostly Cloudy BKN070 9.4 -6 10.8 4.9 33% 7 75.44 0.0
05 12:35 SW 15 G 30 16.09 Partly Cloudy SCT070 10.7 -5.7 31% 75.41 0.0
05 12:15 W 15 G 30 16.09 Partly Cloudy SCT070 10 -6.4 31% 8 75.41 0.0
05 11:55 W 15 G 28 16.09 Partly Cloudy SCT070 9.9 -6 32% 8 75.41 0.0
05 11:35 W 13 G 28 16.09 Fair CLR 9.7 -5.9 33% 8 75.41 0.0
05 11:15 W 19 G 28 16.09 Fair CLR 9.1 -5.7 35% 7 75.41 0.0
05 10:55 W 19 G 28 16.09 Fair CLR 9.3 -5.5 35% 7 75.41 0.0
05 10:35 W 13 16.09 Fair CLR 8.6 -5.1 38% 7 75.41 0.0
05 10:15 W 17 G 33 16.09 Fair CLR 8.3 -5.1 39% 6 75.41 0.0
05 09:55 W 13 G 30 16.09 Fair CLR 8.2 -4.6 40% 6 75.41 0.0
05 09:35 W 15 G 30 16.09 Fair CLR 7.8 -4.4 42% 6 75.41 0.0
05 09:15 W 11 G 30 16.09 Fair CLR 7.3 -4.3 44% 5 75.41 0.0
05 08:55 W 9 16.09 Fair CLR 6.9 -3.9 46% 5 75.41 0.0
05 08:10 W 19 G 26 16.09 Fair CLR 6.1 -2.9 53% 3 75.39 0.0
05 07:55 W 11 16.09 Fair CLR 5.5 -3 55% 3 75.36 0.0
05 07:35 W 17 G 28 16.09 Fair CLR 5.5 -2.7 56% 2 75.34 0.0
05 07:15 W 11 16.09 Fair CLR 5 -2.9 57% 3 75.34 0.0
05 06:55 W 9 16.09 Fair CLR 4.8 -3 6.7 3.8 57% 3 75.34 0.0
05 06:35 W 9 16.09 Fair CLR 4.5 -3 59% 3 75.34 0.0
05 06:15 W 7 16.09 Fair CLR 4.1 -3.5 58% 3 75.31 0.0
05 05:55 W 7 16.09 Fair CLR 4 -3.5 58% 2 75.29 0.0
05 05:35 W 9 16.09 Fair CLR 4 -3.9 57% 2 75.29 0.0
05 04:55 W 6 16.09 Fair CLR 4.4 -5.1 50% 75.23 0.0
05 04:35 W 7 16.09 Partly Cloudy SCT065 4.7 -5.2 49% 3 75.21 0.0
05 04:15 NW 13 16.09 Mostly Cloudy BKN065 5.3 -5.1 47% 3 75.18 0.0
05 03:55 NW 13 16.09 Overcast OVC065 5.8 -5.1 46% 3 75.18 0.0
05 03:35 NW 9 16.09 Overcast OVC065 6 -5.2 45% 4 75.18 0.0
05 03:15 W 15 16.09 Overcast OVC055 6 -5.1 45% 3 75.13 0.0
05 02:55 W 17 16.09 Overcast OVC055 6.5 -4.3 46% 4 75.13 0.0
05 02:35 W 7 16.09 Overcast OVC055 6.5 -3.4 50% 5 75.13 0.0
05 02:15 NW 6 16.09 Overcast BKN065 OVC070 6.4 -3.2 51% 75.13 0.0
05 01:55 NW 11 16.09 Overcast OVC060 6.6 -3.1 50% 5 75.13 0.0
05 01:35 N 9 16.09 Overcast OVC065 6.6 -2.4 53% 5 75.11 0.0
05 01:15 N 13 16.09 Overcast BKN065 OVC075 6.3 -1.8 57% 4 75.11 0.0
05 00:55 N 15 16.09 Overcast SCT065 OVC075 6.3 -1.7 16.3 6 57% 4 75.11 0.0
05 00:35 N 17 G 28 16.09 Overcast OVC075 7 -2.4 52% 4 75.11 0.0
05 00:15 NW 17 G 28 16.09 Overcast OVC075 7.5 -2.1 51% 5 75.08 0.0
04 23:55 NW 11 16.09 Overcast OVC075 6.2 0 65% 4 75.06 0.0
04 23:35 Calm 16.09 Overcast OVC085 7.1 0 61% 75.01 0.0
04 23:15 Calm 16.09 Mostly Cloudy BKN085 7 0 61% 75.01 0.0
04 22:55 NE 6 16.09 Partly Cloudy SCT085 7.3 0 60% 74.98 0.0
04 22:35 NE 9 16.09 Partly Cloudy SCT085 7.6 0 59% 6 74.96 0.0
04 22:15 N 6 16.09 Partly Cloudy SCT085 7.8 0 58% 74.96 0.0
04 21:55 NE 9 16.09 Partly Cloudy SCT085 8.2 0 57% 7 74.9 0.0
04 21:35 NE 7 16.09 Fair CLR 8.5 0.3 57% 8 74.88 0.0
04 21:15 NE 15 16.09 Fair CLR 8.6 0.6 58% 6 74.83 0.0
04 20:55 NE 15 16.09 Fair CLR 9 1.2 58% 7 74.8 0.0
04 20:35 E 11 16.09 Fair CLR 9.7 1.6 57% 8 74.73 0.0
04 20:15 E 17 16.09 Fair CLR 11.2 2.3 55% 74.65 0.0
04 19:55 N 6 16.09 Partly Cloudy SCT110 13.7 0.5 41% 74.63 0.0
04 19:15 W 19 G 35 16.09 Overcast OVC110 15.5 -2 30% 74.57 0.0
04 18:55 W 17 G 30 16.09 Overcast OVC100 16.4 -2.9 21.9 16.4 27% 74.55 0.0
04 18:35 W 19 G 35 16.09 Overcast OVC090 17 -3 25% 74.52 0.0
04 18:15 W 24 G 39 16.09 Overcast SCT075 OVC090 16.8 -3 26% 74.52 0.0
04 17:55 W 31 G 52 16.09 Overcast SCT065 OVC090 17.1 -1.9 27% 74.55 0.0
04 17:35 W 30 G 48 16.09 Overcast OVC100 16.9 -2.9 26% 74.52 0.0
04 17:15 W 24 G 43 16.09 Overcast OVC110 17.7 -1.5 27% 74.5 0.0
04 16:55 W 17 G 26 16.09 Overcast OVC110 19.1 -0.5 27% 74.47 0.0
04 16:35 W 17 G 30 16.09 Overcast OVC110 19.7 -1.2 25% 74.45 0.0
04 16:15 W 9 G 30 16.09 Overcast SCT095 OVC110 18.9 0.9 30% 74.45 0.0
04 15:55 W 20 G 35 16.09 Mostly Cloudy SCT095 BKN110 18.4 1.8 33% 74.45 0.0
04 15:30 W 17 G 44 16.09 Partly Cloudy SCT095 20.3 2.3 30% 74.42 0.0
04 15:15 SW 19 G 35 16.09 Fair CLR 20.5 2.8 31% 74.42 0.0
04 14:55 SW 24 G 41 16.09 Partly Cloudy SCT100 21 3 31% 74.42 0.0
04 14:35 SW 24 G 44 16.09 Partly Cloudy SCT090 SCT110 21.4 3.3 31% 74.42 0.0
04 14:15 SW 28 G 46 16.09 Partly Cloudy SCT080 20.6 2.8 31% 74.42 0.0
04 13:55 W 19 G 37 16.09 Fair CLR 21.5 2.8 29% 74.42 0.0
04 13:35 W 22 G 41 16.09 Partly Cloudy SCT120 21.1 2.8 30% 74.4 0.0
04 13:15 SW 28 G 43 16.09 Partly Cloudy SCT120 21 3 31% 74.42 0.0
04 12:55 SW 19 G 46 16.09 Overcast SCT085 OVC110 20.4 2 21.7 9.8 30% 74.42 0.0
04 12:35 SW 24 G 43 16.09 Mostly Cloudy SCT085 BKN110 21 1.2 27% 74.42 0.0
04 12:15 SW 28 G 54 16.09 Fair CLR 21.6 1.1 26% 74.42 0.0
04 11:55 SW 28 G 50 16.09 Fair CLR 21 0.9 26% 74.45 0.0
04 11:35 SW 24 G 54 16.09 Fair CLR 20.5 0.4 26% 74.45 0.0
04 11:15 SW 24 G 46 16.09 Fair CLR 20.7 0 25% 74.45 0.0
04 10:55 SW 31 G 52 16.09 Partly Cloudy SCT100 21 0 25% 74.47 0.0
04 10:35 SW 30 G 46 16.09 Partly Cloudy SCT100 20.7 0 25% 74.47 0.0
04 10:15 SW 30 G 54 16.09 Fair CLR 19.8 -0.5 26% 74.52 0.0
04 09:55 SW 19 G 37 16.09 Fair CLR 19.5 -0.4 26% 74.52 0.0
04 09:35 SW 19 G 43 16.09 Fair CLR 18.5 -0.4 28% 74.57 0.0
04 09:15 SW 24 G 41 16.09 Fair CLR 18.3 -0.6 28% 74.63 0.0
04 08:55 SW 19 G 31 16.09 Fair CLR 17.9 -0.6 29% 74.63 0.0
04 08:35 SW 15 G 33 16.09 Fair CLR 17.5 -0.9 29% 74.65 0.0
04 08:15 SW 17 G 30 16.09 Fair CLR 16.1 -1 31% 74.7 0.0
04 07:55 SW 17 16.09 Fair CLR 14.7 -1.3 34% 74.7 0.0
04 07:35 S 13 16.09 Fair CLR 13.3 -1.2 37% 74.73 0.0
04 07:15 SW 9 16.09 Fair CLR 11.2 0 46% 74.75 0.0
04 06:55 S 7 16.09 Fair CLR 9.6 1.1 9.6 6.6 56% 9 74.78 0.0
04 06:35 SW 7 16.09 Fair CLR 8.1 1.7 64% 7 74.78 0.0
04 06:15 S 7 16.09 Fair CLR 8 2 66% 7 74.8 0.0
04 05:55 S 7 16.09 Fair CLR 8.3 2.1 65% 7 74.83 0.0
04 05:35 S 11 16.09 Fair CLR 8.1 2.3 67% 6 74.85 0.0
04 05:15 S 11 16.09 Fair CLR 7.5 2.5 71% 6 74.88 0.0
04 04:55 S 13 16.09 Fair CLR 7 2.5 73% 5 74.9 0.0
04 04:35 S 13 16.09 Fair CLR 7 2.6 74% 5 74.93 0.0
04 04:15 S 13 16.09 Fair CLR 7.1 2.5 73% 5 74.96 0.0
04 03:55 S 11 16.09 Fair CLR 6.7 2.3 74% 5 74.96 0.0
04 03:35 S 11 16.09 Fair CLR 7 2.2 72% 5 74.96 0.0
04 03:15 S 11 16.09 Fair CLR 7 2.3 72% 5 74.98 0.0
04 02:55 S 9 16.09 Fair CLR 7.5 2.3 70% 6 74.98 0.0
04 02:35 S 11 16.09 Fair CLR 7.5 2.5 71% 6 75.01 0.0
04 02:15 S 9 16.09 Fair CLR 7.5 2.5 71% 6 75.03 0.0
04 01:55 SE 7 16.09 Fair CLR 8.5 2.3 65% 8 75.06 0.0
04 01:35 SE 7 16.09 Fair CLR 8.3 2.3 66% 7 75.08 0.0
04 01:15 SE 7 16.09 Fair CLR 8.3 2.3 66% 7 75.08 0.0
04 00:55 SE 7 16.09 Fair CLR 8.5 2.5 10 4.9 66% 8 75.11 0.0
04 00:35 SE 7 16.09 Fair CLR 8.2 2.5 68% 7 75.13 0.0
04 00:15 SE 9 16.09 Fair CLR 8.1 2.6 69% 7 75.13 0.0
03 23:55 SE 7 16.09 Fair CLR 8.4 2.7 68% 8 75.13 0.0
03 23:35 E 6 16.09 Fair CLR 7.8 2.9 71% 75.16 0.0
03 23:15 Calm 16.09 Fair CLR 7.7 3 72% 75.18 0.0
03 22:55 Calm 16.09 Fair CLR 7.8 3.1 72% 75.18 0.0
03 22:35 N 6 16.09 Fair CLR 7.9 3.2 72% 75.18 0.0
03 22:15 N 6 16.09 Fair CLR 7.3 3.5 77% 75.18 0.0
03 21:35 Calm 16.09 Fair CLR 5 3.9 93% 75.18 0.0
03 21:15 E 9 16.09 Fair CLR 5.5 4 90% 4 75.16 0.0
03 20:55 Calm 16.09 Fair CLR 6.2 3.8 85% 75.16 0.0
03 20:35 NE 9 G 26 16.09 Partly Cloudy SCT110 7.8 4 77% 6 75.13 0.0
03 20:15 S 9 16.09 Partly Cloudy SCT110 7.8 4 77% 6 75.06 0.0
03 19:55 S 9 16.09 Mostly Cloudy BKN110 8.5 4.5 76% 7 75.03 0.0
03 19:35 E 7 16.09 Partly Cloudy SCT110 9.2 4.6 73% 8 75.03 0.0
03 19:15 S 7 16.09 Fair CLR 9.5 4.1 69% 9 75.03 0.0
03 18:55 S 11 16.09 Fair CLR 10.2 4.1 19.5 10.1 66% 75.01 0.0
03 18:35 S 11 16.09 Fair CLR 10.6 4.3 65% 75.01 0.0
03 18:15 S 11 16.09 Fair CLR 10.7 4.5 66% 75.03 0.0
03 17:35 SE 7 16.09 Mostly Cloudy SCT070 BKN090 BKN100 11.1 5.9 71% 75.06 0.0
03 17:15 SE 15 G 31 16.09 Light Rain BKN070 OVC090 11 5 67% 75.08 0.0
03 16:55 S 7 G 31 16.09 Light Rain BKN075 OVC090 17.2 2.4 37% 75.03 0.0
03 16:35 SW 20 G 43 16.09 Mostly Cloudy BKN090 BKN110 18.1 2.1 34% 74.98 0.0
03 16:15 SW 20 G 39 16.09 Partly Cloudy SCT075 19.4 2.6 33% 75.01 0.0
03 15:55 SW 17 G 46 16.09 Fair CLR 19 3.2 35% 75.03 0.0
03 15:35 SW 20 G 39 16.09 Partly Cloudy SCT090 19.1 3.1 35% 75.06 0.0
03 15:15 SW 22 G 39 16.09 Partly Cloudy SCT120 18.6 3 36% 75.11 0.0
03 14:55 SW 20 G 33 16.09 Mostly Cloudy SCT100 BKN120 18.6 3.1 36% 75.16 0.0
03 14:35 SW 22 G 33 16.09 Mostly Cloudy BKN100 16.6 2.7 40% 75.18 0.0
03 14:15 SW 17 G 35 16.09 Fair CLR 18 2.9 37% 75.21 0.0
03 13:55 SW 19 G 41 16.09 Fair CLR 17.7 2.7 37% 75.21 0.0
03 13:35 SW 24 G 39 16.09 Fair CLR 17 2.5 38% 75.23 0.0
03 13:15 SW 20 G 41 16.09 Fair CLR 16.7 2.5 39% 75.26 0.0
03 12:55 SW 20 G 33 16.09 Partly Cloudy SCT120 16.2 2.1 16.2 7.7 39% 75.29 0.0
03 12:35 SW 20 G 39 16.09 Partly Cloudy SCT120 15.9 1.9 39% 75.31 0.0
03 12:15 SW 13 G 35 16.09 Fair CLR 15.5 1.5 39% 75.34 0.0
03 11:55 SW 24 G 37 16.09 Fair CLR 15.7 1.7 39% 75.34 0.0
03 11:35 W 17 G 33 16.09 Fair CLR 15 1.2 39% 75.36 0.0
03 11:15 SW 19 G 35 16.09 Partly Cloudy SCT090 SCT120 14.6 1.4 41% 75.39 0.0
03 10:55 SW 17 G 31 16.09 Mostly Cloudy SCT070 BKN090 BKN120 13 0.5 43% 75.41 0.0
03 10:35 SW 19 G 31 16.09 Overcast OVC070 12.4 -0.1 42% 75.41 0.0
03 10:15 SW 17 G 30 16.09 Overcast BKN075 OVC085 12.8 -0.5 40% 75.44 0.0
03 09:55 SW 15 16.09 Overcast SCT070 OVC085 11 0 47% 75.46 0.0
03 09:35 SW 13 16.09 Overcast OVC085 10.3 -0.1 49% 75.46 0.0
Date Time (cdt) Wind (kph) Vis. (km) Weather Sky Cond. Air Dwpt Max. Min. Relative Humidity Wind Chill (°C) Heat Index (°C) altimeter (cm) sea level (mb) 1 hr 3 hr 6 hr
6 hour
Temperature (ºC) Pressure Precipitation (cm)